sensor_id;sensor_type;location;lat;lon;timestamp;temperature;humidity
56162;DHT22;42045;52.986;6.014;2022-07-04T00:01:13;13.10;99.90
56162;DHT22;42045;52.986;6.014;2022-07-04T00:03:38;13.00;99.90
56162;DHT22;42045;52.986;6.014;2022-07-04T00:06:04;13.00;99.90
56162;DHT22;42045;52.986;6.014;2022-07-04T00:08:30;13.00;99.90
56162;DHT22;42045;52.986;6.014;2022-07-04T00:10:55;12.90;99.90
56162;DHT22;42045;52.986;6.014;2022-07-04T00:13:21;12.90;99.90
56162;DHT22;42045;52.986;6.014;2022-07-04T00:15:47;12.90;99.90
56162;DHT22;42045;52.986;6.014;2022-07-04T00:18:13;12.90;99.90
56162;DHT22;42045;52.986;6.014;2022-07-04T00:20:38;12.90;99.90
56162;DHT22;42045;52.986;6.014;2022-07-04T00:23:09;12.90;99.90
56162;DHT22;42045;52.986;6.014;2022-07-04T00:25:35;12.90;99.90
56162;DHT22;42045;52.986;6.014;2022-07-04T00:28:01;13.00;99.90
56162;DHT22;42045;52.986;6.014;2022-07-04T00:30:26;13.00;99.90
56162;DHT22;42045;52.986;6.014;2022-07-04T00:32:52;13.00;99.90
56162;DHT22;42045;52.986;6.014;2022-07-04T00:35:18;13.00;99.90
56162;DHT22;42045;52.986;6.014;2022-07-04T00:37:44;13.00;99.90
56162;DHT22;42045;52.986;6.014;2022-07-04T00:40:10;13.00;99.90
56162;DHT22;42045;52.986;6.014;2022-07-04T00:42:36;13.00;99.90
56162;DHT22;42045;52.986;6.014;2022-07-04T00:45:02;12.90;99.90
56162;DHT22;42045;52.986;6.014;2022-07-04T00:47:28;12.90;99.90
56162;DHT22;42045;52.986;6.014;2022-07-04T00:49:53;12.90;99.90
56162;DHT22;42045;52.986;6.014;2022-07-04T00:52:20;12.90;99.90
56162;DHT22;42045;52.986;6.014;2022-07-04T00:54:46;12.80;99.90
56162;DHT22;42045;52.986;6.014;2022-07-04T00:57:12;12.80;99.90
56162;DHT22;42045;52.986;6.014;2022-07-04T00:59:38;12.80;99.90
56162;DHT22;42045;52.986;6.014;2022-07-04T01:02:04;12.70;99.90
56162;DHT22;42045;52.986;6.014;2022-07-04T01:04:29;12.70;99.90
56162;DHT22;42045;52.986;6.014;2022-07-04T01:06:55;12.70;99.90
56162;DHT22;42045;52.986;6.014;2022-07-04T01:09:21;12.70;99.90
56162;DHT22;42045;52.986;6.014;2022-07-04T01:11:49;12.70;99.90
56162;DHT22;42045;52.986;6.014;2022-07-04T01:14:16;12.70;99.90
56162;DHT22;42045;52.986;6.014;2022-07-04T01:16:45;12.70;99.90
56162;DHT22;42045;52.986;6.014;2022-07-04T01:19:10;12.70;99.90
56162;DHT22;42045;52.986;6.014;2022-07-04T01:21:36;12.70;99.90
56162;DHT22;42045;52.986;6.014;2022-07-04T01:24:02;12.70;99.90
56162;DHT22;42045;52.986;6.014;2022-07-04T01:26:29;12.80;99.90
56162;DHT22;42045;52.986;6.014;2022-07-04T01:28:55;12.80;99.90
56162;DHT22;42045;52.986;6.014;2022-07-04T01:31:21;12.80;99.90
56162;DHT22;42045;52.986;6.014;2022-07-04T01:33:47;12.80;99.90
56162;DHT22;42045;52.986;6.014;2022-07-04T01:36:13;12.80;99.90
56162;DHT22;42045;52.986;6.014;2022-07-04T01:38:39;12.70;99.90
56162;DHT22;42045;52.986;6.014;2022-07-04T01:41:04;12.70;99.90
56162;DHT22;42045;52.986;6.014;2022-07-04T01:43:30;12.70;99.90
56162;DHT22;42045;52.986;6.014;2022-07-04T01:45:56;12.70;99.90
56162;DHT22;42045;52.986;6.014;2022-07-04T01:48:22;12.70;99.90
56162;DHT22;42045;52.986;6.014;2022-07-04T01:50:47;12.70;99.90
56162;DHT22;42045;52.986;6.014;2022-07-04T01:53:13;12.70;99.90
56162;DHT22;42045;52.986;6.014;2022-07-04T01:55:39;12.60;99.90
56162;DHT22;42045;52.986;6.014;2022-07-04T01:58:04;12.60;99.90
56162;DHT22;42045;52.986;6.014;2022-07-04T02:00:30;12.60;99.90
56162;DHT22;42045;52.986;6.014;2022-07-04T02:03:14;12.60;99.90
56162;DHT22;42045;52.986;6.014;2022-07-04T02:05:42;12.50;99.90
56162;DHT22;42045;52.986;6.014;2022-07-04T02:08:09;12.50;99.90
56162;DHT22;42045;52.986;6.014;2022-07-04T02:10:36;12.40;99.90
56162;DHT22;42045;52.986;6.014;2022-07-04T02:13:01;12.40;99.90
56162;DHT22;42045;52.986;6.014;2022-07-04T02:15:40;12.40;99.90
56162;DHT22;42045;52.986;6.014;2022-07-04T02:18:08;12.40;99.90
56162;DHT22;42045;52.986;6.014;2022-07-04T02:20:36;12.40;99.90
56162;DHT22;42045;52.986;6.014;2022-07-04T02:23:02;12.40;99.90
56162;DHT22;42045;52.986;6.014;2022-07-04T02:25:28;12.30;99.90
56162;DHT22;42045;52.986;6.014;2022-07-04T02:27:55;12.30;99.90
56162;DHT22;42045;52.986;6.014;2022-07-04T02:30:21;12.30;99.90
56162;DHT22;42045;52.986;6.014;2022-07-04T02:32:46;12.30;99.90
56162;DHT22;42045;52.986;6.014;2022-07-04T02:35:12;12.30;99.90
56162;DHT22;42045;52.986;6.014;2022-07-04T02:37:39;12.20;99.90
56162;DHT22;42045;52.986;6.014;2022-07-04T02:40:05;12.20;99.90
56162;DHT22;42045;52.986;6.014;2022-07-04T02:42:32;12.20;99.90
56162;DHT22;42045;52.986;6.014;2022-07-04T02:44:58;12.20;99.90
56162;DHT22;42045;52.986;6.014;2022-07-04T02:47:24;12.20;99.90
56162;DHT22;42045;52.986;6.014;2022-07-04T02:49:50;12.20;99.90
56162;DHT22;42045;52.986;6.014;2022-07-04T02:52:16;12.20;99.90
56162;DHT22;42045;52.986;6.014;2022-07-04T02:54:42;12.20;99.90
56162;DHT22;42045;52.986;6.014;2022-07-04T02:57:08;12.20;99.90
56162;DHT22;42045;52.986;6.014;2022-07-04T02:59:34;12.20;99.90
56162;DHT22;42045;52.986;6.014;2022-07-04T03:02:00;12.20;99.90
56162;DHT22;42045;52.986;6.014;2022-07-04T03:04:25;12.20;99.90
56162;DHT22;42045;52.986;6.014;2022-07-04T03:06:51;12.20;99.90
56162;DHT22;42045;52.986;6.014;2022-07-04T03:09:17;12.20;99.90
56162;DHT22;42045;52.986;6.014;2022-07-04T03:11:43;12.10;99.90
56162;DHT22;42045;52.986;6.014;2022-07-04T03:14:10;12.10;99.90
56162;DHT22;42045;52.986;6.014;2022-07-04T03:16:36;12.10;99.90
56162;DHT22;42045;52.986;6.014;2022-07-04T03:19:01;12.10;99.90
56162;DHT22;42045;52.986;6.014;2022-07-04T03:21:27;12.10;99.90
56162;DHT22;42045;52.986;6.014;2022-07-04T03:23:53;12.10;99.90
56162;DHT22;42045;52.986;6.014;2022-07-04T03:26:29;12.10;99.90
56162;DHT22;42045;52.986;6.014;2022-07-04T03:29:01;12.10;99.90
56162;DHT22;42045;52.986;6.014;2022-07-04T03:31:28;12.00;99.90
56162;DHT22;42045;52.986;6.014;2022-07-04T03:33:54;12.10;99.90
56162;DHT22;42045;52.986;6.014;2022-07-04T03:36:22;12.10;99.90
56162;DHT22;42045;52.986;6.014;2022-07-04T03:38:48;12.10;99.90
56162;DHT22;42045;52.986;6.014;2022-07-04T03:41:14;12.20;99.90
56162;DHT22;42045;52.986;6.014;2022-07-04T03:43:40;12.30;99.90
56162;DHT22;42045;52.986;6.014;2022-07-04T03:46:06;12.40;99.90
56162;DHT22;42045;52.986;6.014;2022-07-04T03:48:31;12.50;99.90
56162;DHT22;42045;52.986;6.014;2022-07-04T03:50:57;12.50;99.90
56162;DHT22;42045;52.986;6.014;2022-07-04T03:53:23;12.50;99.90
56162;DHT22;42045;52.986;6.014;2022-07-04T03:55:52;12.50;99.90
56162;DHT22;42045;52.986;6.014;2022-07-04T03:58:17;12.60;99.90
56162;DHT22;42045;52.986;6.014;2022-07-04T04:00:43;12.70;99.90
56162;DHT22;42045;52.986;6.014;2022-07-04T04:03:09;13.10;99.90
56162;DHT22;42045;52.986;6.014;2022-07-04T04:05:58;13.90;99.90
56162;DHT22;42045;52.986;6.014;2022-07-04T04:08:24;14.90;99.90
56162;DHT22;42045;52.986;6.014;2022-07-04T04:10:49;15.80;99.90
56162;DHT22;42045;52.986;6.014;2022-07-04T04:13:16;16.60;99.90
56162;DHT22;42045;52.986;6.014;2022-07-04T04:15:42;17.30;99.90
56162;DHT22;42045;52.986;6.014;2022-07-04T04:18:08;18.00;99.90
56162;DHT22;42045;52.986;6.014;2022-07-04T04:20:34;18.60;99.90
56162;DHT22;42045;52.986;6.014;2022-07-04T04:23:00;19.10;99.90
56162;DHT22;42045;52.986;6.014;2022-07-04T04:25:25;19.50;99.90
56162;DHT22;42045;52.986;6.014;2022-07-04T04:27:51;19.80;99.90
56162;DHT22;42045;52.986;6.014;2022-07-04T04:30:17;20.20;99.90
56162;DHT22;42045;52.986;6.014;2022-07-04T04:32:43;20.70;99.90
56162;DHT22;42045;52.986;6.014;2022-07-04T04:35:09;20.80;99.90
56162;DHT22;42045;52.986;6.014;2022-07-04T04:37:34;20.70;99.90
56162;DHT22;42045;52.986;6.014;2022-07-04T04:40:00;20.80;99.90
56162;DHT22;42045;52.986;6.014;2022-07-04T04:42:26;20.60;99.90
56162;DHT22;42045;52.986;6.014;2022-07-04T04:44:52;20.80;99.90
56162;DHT22;42045;52.986;6.014;2022-07-04T04:47:17;21.00;99.90
56162;DHT22;42045;52.986;6.014;2022-07-04T04:49:43;20.80;99.90
56162;DHT22;42045;52.986;6.014;2022-07-04T04:52:09;20.50;99.90
56162;DHT22;42045;52.986;6.014;2022-07-04T04:54:35;20.70;99.90
56162;DHT22;42045;52.986;6.014;2022-07-04T04:57:01;21.40;99.90
56162;DHT22;42045;52.986;6.014;2022-07-04T04:59:28;22.00;99.90
56162;DHT22;42045;52.986;6.014;2022-07-04T05:01:55;22.60;99.90
56162;DHT22;42045;52.986;6.014;2022-07-04T05:04:21;22.90;99.90
56162;DHT22;42045;52.986;6.014;2022-07-04T05:06:48;23.40;99.90
56162;DHT22;42045;52.986;6.014;2022-07-04T05:09:13;24.10;99.90
56162;DHT22;42045;52.986;6.014;2022-07-04T05:11:40;24.60;99.90
56162;DHT22;42045;52.986;6.014;2022-07-04T05:14:05;25.00;99.90
56162;DHT22;42045;52.986;6.014;2022-07-04T05:16:31;25.40;99.90
56162;DHT22;42045;52.986;6.014;2022-07-04T05:19:00;25.60;99.90
56162;DHT22;42045;52.986;6.014;2022-07-04T05:21:26;25.90;99.50
56162;DHT22;42045;52.986;6.014;2022-07-04T05:23:54;26.20;99.10
56162;DHT22;42045;52.986;6.014;2022-07-04T05:26:20;26.40;98.70
56162;DHT22;42045;52.986;6.014;2022-07-04T05:28:46;26.70;98.50
56162;DHT22;42045;52.986;6.014;2022-07-04T05:31:11;26.80;97.70
56162;DHT22;42045;52.986;6.014;2022-07-04T05:33:37;27.10;97.60
56162;DHT22;42045;52.986;6.014;2022-07-04T05:36:03;27.30;97.30
56162;DHT22;42045;52.986;6.014;2022-07-04T05:38:29;27.50;96.90
56162;DHT22;42045;52.986;6.014;2022-07-04T05:40:54;27.80;96.50
56162;DHT22;42045;52.986;6.014;2022-07-04T05:43:20;28.00;96.00
56162;DHT22;42045;52.986;6.014;2022-07-04T05:45:47;28.40;96.00
56162;DHT22;42045;52.986;6.014;2022-07-04T05:48:14;28.60;95.70
56162;DHT22;42045;52.986;6.014;2022-07-04T05:50:40;29.10;95.40
56162;DHT22;42045;52.986;6.014;2022-07-04T05:53:06;28.80;95.20
56162;DHT22;42045;52.986;6.014;2022-07-04T05:55:31;28.10;95.50
56162;DHT22;42045;52.986;6.014;2022-07-04T05:57:57;28.00;95.90
56162;DHT22;42045;52.986;6.014;2022-07-04T06:00:23;28.00;96.00
56162;DHT22;42045;52.986;6.014;2022-07-04T06:02:48;28.00;95.80
56162;DHT22;42045;52.986;6.014;2022-07-04T06:05:14;28.40;95.40
56162;DHT22;42045;52.986;6.014;2022-07-04T06:07:40;28.90;95.70
56162;DHT22;42045;52.986;6.014;2022-07-04T06:10:06;29.30;95.20
56162;DHT22;42045;52.986;6.014;2022-07-04T06:12:32;29.60;94.80
56162;DHT22;42045;52.986;6.014;2022-07-04T06:14:58;29.10;95.10
56162;DHT22;42045;52.986;6.014;2022-07-04T06:17:24;29.00;95.00
56162;DHT22;42045;52.986;6.014;2022-07-04T06:19:50;29.50;94.90
56162;DHT22;42045;52.986;6.014;2022-07-04T06:22:15;29.80;94.60
56162;DHT22;42045;52.986;6.014;2022-07-04T06:24:44;30.40;94.60
56162;DHT22;42045;52.986;6.014;2022-07-04T06:27:13;30.50;93.70
56162;DHT22;42045;52.986;6.014;2022-07-04T06:29:39;30.90;93.20
56162;DHT22;42045;52.986;6.014;2022-07-04T06:32:06;30.80;92.80
56162;DHT22;42045;52.986;6.014;2022-07-04T06:34:32;30.70;93.40
56162;DHT22;42045;52.986;6.014;2022-07-04T06:37:16;30.90;92.90
56162;DHT22;42045;52.986;6.014;2022-07-04T06:39:43;31.20;93.10
56162;DHT22;42045;52.986;6.014;2022-07-04T06:42:08;31.20;92.20
56162;DHT22;42045;52.986;6.014;2022-07-04T06:44:34;31.40;92.70
56162;DHT22;42045;52.986;6.014;2022-07-04T06:47:00;31.70;92.70
56162;DHT22;42045;52.986;6.014;2022-07-04T06:49:26;31.80;92.40
56162;DHT22;42045;52.986;6.014;2022-07-04T06:51:54;32.00;91.60
56162;DHT22;42045;52.986;6.014;2022-07-04T06:54:20;31.50;90.70
56162;DHT22;42045;52.986;6.014;2022-07-04T06:56:46;31.40;91.30
56162;DHT22;42045;52.986;6.014;2022-07-04T06:59:11;32.00;91.90
56162;DHT22;42045;52.986;6.014;2022-07-04T07:01:40;30.90;91.60
56162;DHT22;42045;52.986;6.014;2022-07-04T07:04:06;29.50;91.20
56162;DHT22;42045;52.986;6.014;2022-07-04T07:06:31;28.40;91.90
56162;DHT22;42045;52.986;6.014;2022-07-04T07:08:57;28.30;93.30
56162;DHT22;42045;52.986;6.014;2022-07-04T07:11:23;28.50;93.30
56162;DHT22;42045;52.986;6.014;2022-07-04T07:13:50;28.20;92.80
56162;DHT22;42045;52.986;6.014;2022-07-04T07:16:17;27.60;92.20
56162;DHT22;42045;52.986;6.014;2022-07-04T07:18:44;27.60;92.90
56162;DHT22;42045;52.986;6.014;2022-07-04T07:21:10;28.60;92.80
56162;DHT22;42045;52.986;6.014;2022-07-04T07:23:42;29.70;92.60
56162;DHT22;42045;52.986;6.014;2022-07-04T07:26:08;30.20;92.20
56162;DHT22;42045;52.986;6.014;2022-07-04T07:28:34;29.40;91.20
56162;DHT22;42045;52.986;6.014;2022-07-04T07:31:01;28.90;91.40
56162;DHT22;42045;52.986;6.014;2022-07-04T07:33:27;28.10;92.00
56162;DHT22;42045;52.986;6.014;2022-07-04T07:35:53;27.20;92.60
56162;DHT22;42045;52.986;6.014;2022-07-04T07:38:19;26.50;92.50
56162;DHT22;42045;52.986;6.014;2022-07-04T07:40:44;25.90;93.30
56162;DHT22;42045;52.986;6.014;2022-07-04T07:43:10;25.40;94.30
56162;DHT22;42045;52.986;6.014;2022-07-04T07:45:36;25.10;94.50
56162;DHT22;42045;52.986;6.014;2022-07-04T07:48:03;24.70;95.10
56162;DHT22;42045;52.986;6.014;2022-07-04T07:50:29;24.50;95.10
56162;DHT22;42045;52.986;6.014;2022-07-04T07:52:55;24.70;95.50
56162;DHT22;42045;52.986;6.014;2022-07-04T07:55:20;24.90;95.40
56162;DHT22;42045;52.986;6.014;2022-07-04T07:57:46;25.10;95.20
56162;DHT22;42045;52.986;6.014;2022-07-04T08:00:12;25.30;95.00
56162;DHT22;42045;52.986;6.014;2022-07-04T08:02:38;25.40;94.90
56162;DHT22;42045;52.986;6.014;2022-07-04T08:05:22;25.30;94.00
56162;DHT22;42045;52.986;6.014;2022-07-04T08:07:48;25.00;93.80
56162;DHT22;42045;52.986;6.014;2022-07-04T08:10:14;25.10;94.20
56162;DHT22;42045;52.986;6.014;2022-07-04T08:12:41;25.00;94.30
56162;DHT22;42045;52.986;6.014;2022-07-04T08:15:07;24.70;95.00
56162;DHT22;42045;52.986;6.014;2022-07-04T08:17:33;25.10;95.10
56162;DHT22;42045;52.986;6.014;2022-07-04T08:20:02;25.30;94.90
56162;DHT22;42045;52.986;6.014;2022-07-04T08:22:31;25.40;95.10
56162;DHT22;42045;52.986;6.014;2022-07-04T08:24:57;25.20;92.90
56162;DHT22;42045;52.986;6.014;2022-07-04T08:27:23;25.10;93.30
56162;DHT22;42045;52.986;6.014;2022-07-04T08:29:49;24.90;93.30
56162;DHT22;42045;52.986;6.014;2022-07-04T08:32:15;24.70;94.20
56162;DHT22;42045;52.986;6.014;2022-07-04T08:34:41;24.80;94.10
56162;DHT22;42045;52.986;6.014;2022-07-04T08:37:08;24.90;93.20
56162;DHT22;42045;52.986;6.014;2022-07-04T08:39:34;24.50;93.10
56162;DHT22;42045;52.986;6.014;2022-07-04T08:42:05;24.60;94.40
56162;DHT22;42045;52.986;6.014;2022-07-04T08:44:31;24.70;94.10
56162;DHT22;42045;52.986;6.014;2022-07-04T08:46:58;24.40;93.30
56162;DHT22;42045;52.986;6.014;2022-07-04T08:49:29;24.60;94.50
56162;DHT22;42045;52.986;6.014;2022-07-04T08:52:02;24.60;93.80
56162;DHT22;42045;52.986;6.014;2022-07-04T08:54:31;24.40;93.30
56162;DHT22;42045;52.986;6.014;2022-07-04T08:57:23;24.50;93.70
56162;DHT22;42045;52.986;6.014;2022-07-04T09:00:08;24.80;94.20
56162;DHT22;42045;52.986;6.014;2022-07-04T09:02:34;25.00;94.70
56162;DHT22;42045;52.986;6.014;2022-07-04T09:05:03;25.00;94.00
56162;DHT22;42045;52.986;6.014;2022-07-04T09:07:32;24.70;92.80
56162;DHT22;42045;52.986;6.014;2022-07-04T09:09:58;24.80;93.70
56162;DHT22;42045;52.986;6.014;2022-07-04T09:12:24;25.10;94.00
56162;DHT22;42045;52.986;6.014;2022-07-04T09:14:50;25.10;93.50
56162;DHT22;42045;52.986;6.014;2022-07-04T09:17:17;25.00;93.40
56162;DHT22;42045;52.986;6.014;2022-07-04T09:19:43;24.80;93.30
56162;DHT22;42045;52.986;6.014;2022-07-04T09:22:10;24.50;92.90
56162;DHT22;42045;52.986;6.014;2022-07-04T09:24:51;24.10;93.00
56162;DHT22;42045;52.986;6.014;2022-07-04T09:27:40;23.90;93.90
56162;DHT22;42045;52.986;6.014;2022-07-04T09:30:07;23.60;93.50
56162;DHT22;42045;52.986;6.014;2022-07-04T09:32:40;23.40;94.10
56162;DHT22;42045;52.986;6.014;2022-07-04T09:35:17;23.10;95.20
56162;DHT22;42045;52.986;6.014;2022-07-04T09:37:49;23.40;95.80
56162;DHT22;42045;52.986;6.014;2022-07-04T09:40:29;23.60;95.20
56162;DHT22;42045;52.986;6.014;2022-07-04T09:42:58;23.90;95.20
56162;DHT22;42045;52.986;6.014;2022-07-04T09:45:26;24.10;95.30
56162;DHT22;42045;52.986;6.014;2022-07-04T09:47:57;24.40;95.40
56162;DHT22;42045;52.986;6.014;2022-07-04T09:50:28;24.60;95.00
56162;DHT22;42045;52.986;6.014;2022-07-04T09:52:59;24.50;93.90
56162;DHT22;42045;52.986;6.014;2022-07-04T09:55:31;24.10;92.60
56162;DHT22;42045;52.986;6.014;2022-07-04T09:57:59;23.60;92.50
56162;DHT22;42045;52.986;6.014;2022-07-04T10:00:28;23.40;93.30
56162;DHT22;42045;52.986;6.014;2022-07-04T10:02:55;23.30;93.60
56162;DHT22;42045;52.986;6.014;2022-07-04T10:05:24;23.40;94.10
56162;DHT22;42045;52.986;6.014;2022-07-04T10:07:50;23.70;94.60
56162;DHT22;42045;52.986;6.014;2022-07-04T10:10:29;23.90;94.30
56162;DHT22;42045;52.986;6.014;2022-07-04T10:13:01;24.00;94.20
56162;DHT22;42045;52.986;6.014;2022-07-04T10:15:27;24.10;94.40
56162;DHT22;42045;52.986;6.014;2022-07-04T10:17:53;24.20;93.60
56162;DHT22;42045;52.986;6.014;2022-07-04T10:20:19;24.40;94.00
56162;DHT22;42045;52.986;6.014;2022-07-04T10:22:46;24.50;93.90
56162;DHT22;42045;52.986;6.014;2022-07-04T10:25:12;24.40;93.50
56162;DHT22;42045;52.986;6.014;2022-07-04T10:27:39;24.30;93.90
56162;DHT22;42045;52.986;6.014;2022-07-04T10:30:07;24.40;93.30
56162;DHT22;42045;52.986;6.014;2022-07-04T10:32:34;24.50;93.40
56162;DHT22;42045;52.986;6.014;2022-07-04T10:35:00;24.70;94.40
56162;DHT22;42045;52.986;6.014;2022-07-04T10:51:34;23.70;93.60
56162;DHT22;42045;52.986;6.014;2022-07-04T10:54:08;23.90;94.40
56162;DHT22;42045;52.986;6.014;2022-07-04T10:59:07;24.60;94.00
56162;DHT22;42045;52.986;6.014;2022-07-04T11:01:34;24.30;92.50
56162;DHT22;42045;52.986;6.014;2022-07-04T11:04:00;24.20;91.70
56162;DHT22;42045;52.986;6.014;2022-07-04T11:09:18;24.40;92.70
56162;DHT22;42045;52.986;6.014;2022-07-04T11:11:48;24.40;93.30
56162;DHT22;42045;52.986;6.014;2022-07-04T11:17:04;24.20;91.10
56162;DHT22;42045;52.986;6.014;2022-07-04T11:19:31;24.20;91.10
56162;DHT22;42045;52.986;6.014;2022-07-04T11:21:57;24.40;92.50
56162;DHT22;42045;52.986;6.014;2022-07-04T11:24:24;24.70;92.20
56162;DHT22;42045;52.986;6.014;2022-07-04T11:26:50;25.00;92.40
56162;DHT22;42045;52.986;6.014;2022-07-04T11:29:17;25.10;92.00
56162;DHT22;42045;52.986;6.014;2022-07-04T11:31:47;25.00;91.50
56162;DHT22;42045;52.986;6.014;2022-07-04T11:34:13;24.80;90.70
56162;DHT22;42045;52.986;6.014;2022-07-04T11:36:47;24.60;91.10
56162;DHT22;42045;52.986;6.014;2022-07-04T11:39:15;24.40;91.90
56162;DHT22;42045;52.986;6.014;2022-07-04T11:41:49;24.50;93.10
56162;DHT22;42045;52.986;6.014;2022-07-04T11:44:37;24.30;91.80
56162;DHT22;42045;52.986;6.014;2022-07-04T11:52:20;23.70;92.80
56162;DHT22;42045;52.986;6.014;2022-07-04T11:54:47;23.60;91.90
56162;DHT22;42045;52.986;6.014;2022-07-04T11:57:29;23.40;92.10
56162;DHT22;42045;52.986;6.014;2022-07-04T12:00:01;23.30;92.50
56162;DHT22;42045;52.986;6.014;2022-07-04T12:02:29;23.50;94.30
56162;DHT22;42045;52.986;6.014;2022-07-04T12:04:56;23.70;92.60
56162;DHT22;42045;52.986;6.014;2022-07-04T12:07:27;23.70;92.00
56162;DHT22;42045;52.986;6.014;2022-07-04T12:09:55;23.50;91.80
56162;DHT22;42045;52.986;6.014;2022-07-04T12:12:21;23.50;92.90
56162;DHT22;42045;52.986;6.014;2022-07-04T12:15:04;23.70;93.20
56162;DHT22;42045;52.986;6.014;2022-07-04T12:17:36;23.70;92.60
56162;DHT22;42045;52.986;6.014;2022-07-04T12:22:35;23.60;92.20
56162;DHT22;42045;52.986;6.014;2022-07-04T12:25:03;23.50;93.20
56162;DHT22;42045;52.986;6.014;2022-07-04T12:27:30;23.40;91.90
56162;DHT22;42045;52.986;6.014;2022-07-04T12:29:57;23.10;91.80
56162;DHT22;42045;52.986;6.014;2022-07-04T12:32:23;23.20;90.90
56162;DHT22;42045;52.986;6.014;2022-07-04T12:34:49;23.20;90.60
56162;DHT22;42045;52.986;6.014;2022-07-04T12:37:16;23.10;91.90
56162;DHT22;42045;52.986;6.014;2022-07-04T12:39:43;23.00;91.50
56162;DHT22;42045;52.986;6.014;2022-07-04T12:42:19;23.10;91.40
56162;DHT22;42045;52.986;6.014;2022-07-04T12:44:46;23.00;90.90
56162;DHT22;42045;52.986;6.014;2022-07-04T12:47:15;23.00;91.10
56162;DHT22;42045;52.986;6.014;2022-07-04T12:49:46;22.90;91.40
56162;DHT22;42045;52.986;6.014;2022-07-04T12:52:16;22.80;92.00
56162;DHT22;42045;52.986;6.014;2022-07-04T12:54:43;22.80;91.10
56162;DHT22;42045;52.986;6.014;2022-07-04T12:57:14;22.80;92.20
56162;DHT22;42045;52.986;6.014;2022-07-04T12:59:41;23.10;92.80
56162;DHT22;42045;52.986;6.014;2022-07-04T13:02:08;23.20;92.10
56162;DHT22;42045;52.986;6.014;2022-07-04T13:04:35;23.30;91.80
56162;DHT22;42045;52.986;6.014;2022-07-04T13:07:21;23.20;91.40
56162;DHT22;42045;52.986;6.014;2022-07-04T13:09:47;23.40;93.50
56162;DHT22;42045;52.986;6.014;2022-07-04T13:12:13;23.40;92.90
56162;DHT22;42045;52.986;6.014;2022-07-04T13:14:54;23.30;91.90
56162;DHT22;42045;52.986;6.014;2022-07-04T13:17:20;23.20;92.40
56162;DHT22;42045;52.986;6.014;2022-07-04T13:19:47;23.10;92.30
56162;DHT22;42045;52.986;6.014;2022-07-04T13:22:12;23.00;92.30
56162;DHT22;42045;52.986;6.014;2022-07-04T13:24:38;22.90;91.60
56162;DHT22;42045;52.986;6.014;2022-07-04T13:27:05;22.70;91.50
56162;DHT22;42045;52.986;6.014;2022-07-04T13:29:31;22.70;91.90
56162;DHT22;42045;52.986;6.014;2022-07-04T13:31:57;22.80;92.90
56162;DHT22;42045;52.986;6.014;2022-07-04T13:34:22;23.00;93.40
56162;DHT22;42045;52.986;6.014;2022-07-04T13:36:48;23.10;93.80
56162;DHT22;42045;52.986;6.014;2022-07-04T13:39:14;23.30;93.30
56162;DHT22;42045;52.986;6.014;2022-07-04T13:41:42;23.20;92.70
56162;DHT22;42045;52.986;6.014;2022-07-04T13:44:07;23.30;92.10
56162;DHT22;42045;52.986;6.014;2022-07-04T13:46:34;23.20;92.20
56162;DHT22;42045;52.986;6.014;2022-07-04T13:49:04;23.30;92.80
56162;DHT22;42045;52.986;6.014;2022-07-04T13:51:31;23.30;91.40
56162;DHT22;42045;52.986;6.014;2022-07-04T13:54:01;23.10;91.70
56162;DHT22;42045;52.986;6.014;2022-07-04T13:56:26;23.10;92.40
56162;DHT22;42045;52.986;6.014;2022-07-04T13:58:53;23.00;93.30
56162;DHT22;42045;52.986;6.014;2022-07-04T14:01:19;23.00;93.40
56162;DHT22;42045;52.986;6.014;2022-07-04T14:03:47;22.80;91.90
56162;DHT22;42045;52.986;6.014;2022-07-04T14:06:17;22.60;92.00
56162;DHT22;42045;52.986;6.014;2022-07-04T14:08:43;22.60;92.80
56162;DHT22;42045;52.986;6.014;2022-07-04T14:11:08;22.50;92.40
56162;DHT22;42045;52.986;6.014;2022-07-04T14:13:34;22.30;92.30
56162;DHT22;42045;52.986;6.014;2022-07-04T14:16:02;22.20;93.30
56162;DHT22;42045;52.986;6.014;2022-07-04T14:18:30;22.10;93.00
56162;DHT22;42045;52.986;6.014;2022-07-04T14:20:56;22.10;92.50
56162;DHT22;42045;52.986;6.014;2022-07-04T14:23:21;22.10;92.90
56162;DHT22;42045;52.986;6.014;2022-07-04T14:26:13;22.10;92.90
56162;DHT22;42045;52.986;6.014;2022-07-04T14:28:39;22.10;92.40
56162;DHT22;42045;52.986;6.014;2022-07-04T14:31:05;22.10;92.70
56162;DHT22;42045;52.986;6.014;2022-07-04T14:33:32;22.10;92.80
56162;DHT22;42045;52.986;6.014;2022-07-04T14:35:59;22.00;93.10
56162;DHT22;42045;52.986;6.014;2022-07-04T14:38:25;22.00;93.20
56162;DHT22;42045;52.986;6.014;2022-07-04T14:40:51;22.00;93.40
56162;DHT22;42045;52.986;6.014;2022-07-04T14:43:17;21.80;93.40
56162;DHT22;42045;52.986;6.014;2022-07-04T14:45:45;21.90;93.70
56162;DHT22;42045;52.986;6.014;2022-07-04T14:48:16;21.90;92.90
56162;DHT22;42045;52.986;6.014;2022-07-04T14:50:42;21.80;93.30
56162;DHT22;42045;52.986;6.014;2022-07-04T14:53:08;21.80;93.30
56162;DHT22;42045;52.986;6.014;2022-07-04T14:55:34;21.80;93.30
56162;DHT22;42045;52.986;6.014;2022-07-04T14:58:00;21.80;93.30
56162;DHT22;42045;52.986;6.014;2022-07-04T15:00:26;21.80;93.70
56162;DHT22;42045;52.986;6.014;2022-07-04T15:02:52;21.80;93.70
56162;DHT22;42045;52.986;6.014;2022-07-04T15:05:18;21.90;93.90
56162;DHT22;42045;52.986;6.014;2022-07-04T15:07:44;21.80;93.90
56162;DHT22;42045;52.986;6.014;2022-07-04T15:10:10;21.90;94.00
56162;DHT22;42045;52.986;6.014;2022-07-04T15:12:36;21.90;93.50
56162;DHT22;42045;52.986;6.014;2022-07-04T15:15:02;21.90;93.40
56162;DHT22;42045;52.986;6.014;2022-07-04T15:17:27;21.80;93.20
56162;DHT22;42045;52.986;6.014;2022-07-04T15:19:53;21.80;93.50
56162;DHT22;42045;52.986;6.014;2022-07-04T15:22:38;21.70;93.50
56162;DHT22;42045;52.986;6.014;2022-07-04T15:25:22;21.40;93.20
56162;DHT22;42045;52.986;6.014;2022-07-04T15:27:48;21.40;93.80
56162;DHT22;42045;52.986;6.014;2022-07-04T15:30:17;21.50;93.60
56162;DHT22;42045;52.986;6.014;2022-07-04T15:32:42;21.50;93.20
56162;DHT22;42045;52.986;6.014;2022-07-04T15:35:08;21.40;93.10
56162;DHT22;42045;52.986;6.014;2022-07-04T15:37:34;21.30;93.30
56162;DHT22;42045;52.986;6.014;2022-07-04T15:40:00;21.30;93.30
56162;DHT22;42045;52.986;6.014;2022-07-04T15:42:25;21.40;93.40
56162;DHT22;42045;52.986;6.014;2022-07-04T15:44:56;21.40;93.60
56162;DHT22;42045;52.986;6.014;2022-07-04T15:47:22;21.40;93.90
56162;DHT22;42045;52.986;6.014;2022-07-04T15:49:48;21.50;93.50
56162;DHT22;42045;52.986;6.014;2022-07-04T15:52:14;21.50;94.10
56162;DHT22;42045;52.986;6.014;2022-07-04T15:54:39;21.40;93.40
56162;DHT22;42045;52.986;6.014;2022-07-04T15:57:05;21.30;93.40
56162;DHT22;42045;52.986;6.014;2022-07-04T15:59:32;21.30;92.80
56162;DHT22;42045;52.986;6.014;2022-07-04T16:01:58;21.20;93.60